Startpagina
METAR-TAF:

METAR-TAF

Vliegvelden :

San Sebastian, Spanje

breedte: 43-21N, lengte: 001-48W, hoogte: 5 m

Actueel weer

Dit bericht is 44 minuten geleden gemaakt, om 20:30 UTC
Wind 2 kt uit variabele richting
Temperatuur 11°C
Vochtigheid 87%
Druk 1034 hPa
Zicht: 7000 m
Gebroken wolken op 900 ft

METAR: LESO 232030Z VRB02KT 7000 BKN009 11/09 Q1034

Tijdstip: 22:14 (21:14 UTC)

Verwachting

Dit bericht is 2 uur en het 2 minuten geleden gemaakt, om 19:12 UTC
Verwachting geldig van 23 om 19 UTC tot 24 om 18 UTC
Wind 4 kt uit variabele richting
Zicht: 9000 m
Weinig wolken op 1000 ft
Kans 30% :
Tijdelijke
van 23 om 19 UTC tot 24 om 09 UTC
Zicht: 3000 m
Gebroken wolken op 1000 ft
nevel

TAF: LESO 231912Z 2319/2418 VRB04KT 9000 FEW010 TX16/2414Z TN05/2406Z PROB30 TEMPO 2319/2409 3000 BR BKN010

Waarnemingen en weersverwachtingen van meer dan 4000 vliegvelden (METAR en TAF).

De beschikbare stations zijn de gele en rode punten op de kaart.

Ga met uw muis naar het station om de naam te zien.

Klik dan om waarnemingen en weersverwachtingen te zien.

kaart wijzigen: klik op de groene knoppen met een zwart kruis om in te zoomen, op de groene knop met een streepje om uit te zoomen of op de groene pijlen voor aangrenzende kaarten.


METAR-TAF: